createdAt,value
2023-05-10T00:00:35.257Z,14.44
2023-05-10T00:03:05.896Z,11.78
2023-05-10T00:05:35.183Z,13.87
2023-05-10T00:08:03.442Z,13.49
2023-05-10T00:14:34.641Z,15.01
2023-05-10T00:17:04.522Z,15.58
2023-05-10T00:19:34.412Z,13.11
2023-05-10T00:22:04.108Z,14.06
2023-05-10T00:24:33.779Z,14.44
2023-05-10T00:27:04.960Z,15.96
2023-05-10T00:29:34.822Z,17.29
2023-05-10T00:32:05.140Z,14.44
2023-05-10T00:34:34.893Z,14.06
2023-05-10T00:37:04.615Z,12.73
2023-05-10T00:39:34.411Z,15.20
2023-05-10T00:42:07.626Z,18.43
2023-05-10T00:44:37.771Z,15.01
2023-05-10T00:47:06.925Z,16.34
2023-05-10T00:49:36.577Z,18.81
2023-05-10T00:52:06.993Z,15.39
2023-05-10T00:54:34.861Z,17.48
2023-05-10T00:57:04.421Z,13.30
2023-05-10T00:59:31.894Z,16.34
2023-05-10T01:02:00.140Z,15.96
2023-05-10T01:04:30.039Z,14.63
2023-05-10T01:06:57.392Z,13.87
2023-05-10T01:09:27.355Z,14.82
2023-05-10T01:11:58.167Z,15.77
2023-05-10T01:14:29.377Z,14.06
2023-05-10T01:17:00.488Z,20.52
2023-05-10T01:19:35.778Z,16.53
2023-05-10T01:22:33.401Z,13.68
2023-05-10T01:25:31.350Z,16.15
2023-05-10T01:28:39.264Z,12.54
2023-05-10T01:31:44.115Z,15.39
2023-05-10T01:34:24.667Z,15.58
2023-05-10T01:37:24.657Z,15.96
2023-05-10T01:40:14.815Z,18.05
2023-05-10T01:42:54.311Z,16.91
2023-05-10T01:45:40.290Z,14.63
2023-05-10T01:48:12.695Z,12.92
2023-05-10T01:50:46.483Z,17.29
2023-05-10T01:53:22.245Z,14.25
2023-05-10T01:55:57.991Z,17.29
2023-05-10T01:58:37.327Z,15.96
2023-05-10T02:01:09.401Z,16.53
2023-05-10T02:03:42.192Z,18.81
2023-05-10T02:06:15.815Z,19.38
2023-05-10T02:08:48.767Z,15.58
2023-05-10T02:11:22.459Z,16.91
2023-05-10T02:13:54.893Z,21.28
2023-05-10T02:16:28.213Z,17.10
2023-05-10T02:19:00.499Z,13.49
2023-05-10T02:21:29.305Z,19.57
2023-05-10T02:23:59.333Z,19.95
2023-05-10T02:26:32.298Z,17.86
2023-05-10T02:29:06.009Z,15.01
2023-05-10T02:31:36.270Z,20.14
2023-05-10T02:34:07.300Z,17.48
2023-05-10T02:36:40.051Z,15.77
2023-05-10T02:39:13.565Z,18.62
2023-05-10T02:41:44.313Z,15.58
2023-05-10T02:44:16.812Z,16.72
2023-05-10T02:46:46.658Z,18.43
2023-05-10T02:49:17.469Z,19.57
2023-05-10T02:51:56.441Z,15.01
2023-05-10T02:54:34.237Z,15.01
2023-05-10T02:57:06.835Z,17.67
2023-05-10T02:59:36.672Z,19.57
2023-05-10T03:02:06.341Z,17.48
2023-05-10T03:04:33.464Z,16.53
2023-05-10T03:07:03.675Z,17.86
2023-05-10T03:09:33.698Z,16.72
2023-05-10T03:12:53.809Z,17.29
2023-05-10T03:15:58.992Z,18.24
2023-05-10T03:18:37.938Z,15.96
2023-05-10T03:21:13.460Z,16.53
2023-05-10T03:23:57.500Z,18.05
2023-05-10T03:26:31.186Z,18.43
2023-05-10T03:29:02.975Z,16.53
2023-05-10T03:31:33.821Z,21.28
2023-05-10T03:34:03.743Z,21.09
2023-05-10T03:36:33.864Z,19.57
2023-05-10T03:39:03.775Z,17.10
2023-05-10T03:41:33.529Z,18.24
2023-05-10T03:44:03.308Z,20.71
2023-05-10T03:46:33.377Z,16.72
2023-05-10T03:49:03.552Z,17.86
2023-05-10T03:51:33.310Z,16.53
2023-05-10T03:54:03.018Z,18.24
2023-05-10T03:56:33.506Z,17.29
2023-05-10T03:59:08.164Z,20.71
2023-05-10T04:01:38.099Z,18.62
2023-05-10T04:04:07.910Z,15.20
2023-05-10T04:06:39.238Z,16.91
2023-05-10T04:09:09.315Z,15.20
2023-05-10T04:11:39.118Z,18.24
2023-05-10T04:14:08.793Z,13.87
2023-05-10T04:16:38.557Z,14.82
2023-05-10T04:19:08.431Z,19.95
2023-05-10T04:21:38.233Z,17.86
2023-05-10T04:24:08.392Z,14.82
2023-05-10T04:26:38.251Z,15.77
2023-05-10T04:29:08.038Z,15.96
2023-05-10T04:31:37.805Z,14.63
2023-05-10T04:34:07.625Z,16.91
2023-05-10T04:36:37.723Z,17.10
2023-05-10T04:39:07.449Z,17.29
2023-05-10T04:41:39.317Z,19.38
2023-05-10T04:44:09.000Z,16.34
2023-05-10T04:46:38.791Z,15.96
2023-05-10T04:49:08.624Z,15.96
2023-05-10T04:51:38.347Z,16.53
2023-05-10T04:54:08.251Z,14.25
2023-05-10T04:56:38.006Z,15.58
2023-05-10T04:59:08.191Z,12.73
2023-05-10T05:01:37.979Z,16.72
2023-05-10T05:04:07.832Z,11.78
2023-05-10T05:06:37.582Z,15.77
2023-05-10T05:09:07.711Z,14.25
2023-05-10T05:11:35.806Z,12.54
2023-05-10T05:14:04.226Z,12.35
2023-05-10T05:16:33.286Z,12.73
2023-05-10T05:19:01.887Z,17.10
2023-05-10T05:21:29.788Z,16.15
2023-05-10T05:23:57.887Z,12.73
2023-05-10T05:26:27.641Z,12.92
2023-05-10T05:28:55.700Z,14.06
2023-05-10T05:31:23.190Z,12.35
2023-05-10T05:33:51.553Z,10.83
2023-05-10T05:36:19.907Z,13.49
2023-05-10T05:38:48.640Z,16.15
2023-05-10T05:41:16.683Z,10.07
2023-05-10T05:43:45.130Z,12.92
2023-05-10T05:46:13.611Z,12.54
2023-05-10T05:48:41.978Z,11.40
2023-05-10T05:51:10.398Z,13.87
2023-05-10T05:53:38.766Z,12.73
2023-05-10T05:56:07.292Z,10.07
2023-05-10T05:58:35.590Z,12.54
2023-05-10T06:01:04.064Z,10.83
2023-05-10T06:03:32.457Z,12.73
2023-05-10T06:06:00.846Z,12.16
2023-05-10T06:08:29.242Z,10.26
2023-05-10T06:10:57.723Z,9.88
2023-05-10T06:13:26.207Z,8.93
2023-05-10T06:15:54.489Z,11.59
2023-05-10T06:18:22.894Z,10.83
2023-05-10T06:20:52.636Z,9.69
2023-05-10T06:23:19.806Z,9.69
2023-05-10T06:25:48.232Z,10.26
2023-05-10T06:28:16.567Z,9.88
2023-05-10T06:30:45.497Z,10.83
2023-05-10T06:33:13.640Z,12.16
2023-05-10T06:35:41.863Z,8.93
2023-05-10T06:38:10.493Z,11.02
2023-05-10T06:40:43.249Z,13.68
2023-05-10T06:43:10.961Z,9.69
2023-05-10T06:45:38.550Z,10.64
2023-05-10T06:48:06.924Z,9.50
2023-05-10T06:50:35.347Z,10.83
2023-05-10T06:53:03.938Z,10.26
2023-05-10T06:55:32.371Z,11.02
2023-05-10T06:58:00.553Z,11.59
2023-05-10T07:00:28.966Z,11.21
2023-05-10T07:02:57.440Z,10.07
2023-05-10T07:05:25.968Z,11.02
2023-05-10T07:07:54.364Z,9.69
2023-05-10T07:10:22.832Z,11.97
2023-05-10T07:12:51.124Z,9.69
2023-05-10T07:15:19.795Z,9.12
2023-05-10T07:17:47.922Z,10.64
2023-05-10T07:20:16.502Z,8.74
2023-05-10T07:22:44.700Z,9.31
2023-05-10T07:25:13.159Z,9.12
2023-05-10T07:27:41.581Z,8.17
2023-05-10T07:30:10.780Z,9.50
2023-05-10T07:32:42.836Z,7.60
2023-05-10T07:35:12.636Z,10.45
2023-05-10T07:37:42.467Z,9.31
2023-05-10T07:40:12.385Z,7.98
2023-05-10T07:42:42.083Z,10.26
2023-05-10T07:45:12.020Z,11.78
2023-05-10T07:47:41.773Z,10.45
2023-05-10T07:50:11.705Z,8.93
2023-05-10T07:52:41.487Z,11.97
2023-05-10T07:55:11.592Z,9.88
2023-05-10T07:57:41.326Z,12.16
2023-05-10T08:00:17.797Z,11.78
2023-05-10T08:02:49.228Z,9.88
2023-05-10T08:05:19.656Z,8.93
2023-05-10T08:07:49.791Z,10.83
2023-05-10T08:10:19.659Z,8.55
2023-05-10T08:12:49.432Z,12.35
2023-05-10T08:15:19.449Z,9.12
2023-05-10T08:17:49.659Z,10.26
2023-05-10T08:20:20.169Z,8.74
2023-05-10T08:22:51.904Z,9.50
2023-05-10T08:25:21.768Z,8.93
2023-05-10T08:27:51.724Z,8.93
2023-05-10T08:30:21.856Z,10.07
2023-05-10T08:32:51.702Z,7.98
2023-05-10T08:35:21.518Z,11.78
2023-05-10T08:37:52.813Z,11.02
2023-05-10T08:40:27.149Z,9.50
2023-05-10T08:43:07.027Z,9.31
2023-05-10T08:45:44.104Z,9.88
2023-05-10T08:48:16.351Z,8.17
2023-05-10T08:50:48.603Z,11.59
2023-05-10T08:53:20.389Z,10.64
2023-05-10T08:55:50.888Z,9.69
2023-05-10T08:58:21.445Z,12.16
2023-05-10T09:00:54.449Z,7.98
2023-05-10T09:03:22.422Z,10.07
2023-05-10T09:05:52.333Z,11.02
2023-05-10T09:08:26.381Z,9.69
2023-05-10T09:10:56.548Z,8.36
2023-05-10T09:13:27.110Z,7.79
2023-05-10T09:16:00.246Z,7.98
2023-05-10T09:18:32.153Z,9.50
2023-05-10T09:21:02.862Z,10.83
2023-05-10T09:23:33.364Z,9.12
2023-05-10T09:26:07.031Z,11.21
2023-05-10T09:28:57.157Z,9.69
2023-05-10T09:31:48.128Z,8.55
2023-05-10T09:34:21.252Z,8.36
2023-05-10T09:37:01.601Z,8.36
2023-05-10T09:39:37.409Z,9.69
2023-05-10T09:42:13.691Z,8.93
2023-05-10T09:44:44.412Z,10.26
2023-05-10T09:47:20.102Z,8.93
2023-05-10T09:49:56.503Z,9.31
2023-05-10T09:52:26.208Z,8.74
2023-05-10T09:54:56.431Z,9.69
2023-05-10T09:57:27.009Z,8.55
2023-05-10T09:59:58.484Z,8.36
2023-05-10T10:02:33.016Z,7.60
2023-05-10T10:05:06.873Z,8.17
2023-05-10T10:07:36.446Z,10.26
2023-05-10T10:10:12.334Z,9.31
2023-05-10T10:12:42.811Z,11.59
2023-05-10T10:15:14.061Z,9.31
2023-05-10T10:17:47.757Z,11.40
2023-05-10T10:20:19.914Z,8.36
2023-05-10T10:22:50.861Z,9.12
2023-05-10T10:25:25.192Z,8.55
2023-05-10T10:28:01.361Z,10.45
2023-05-10T10:30:49.257Z,8.74
2023-05-10T10:33:52.914Z,7.98
2023-05-10T10:36:22.337Z,10.26
2023-05-10T10:38:58.933Z,8.93
2023-05-10T10:41:30.089Z,9.69
2023-05-10T10:44:31.700Z,10.45
2023-05-10T10:47:00.576Z,8.36
2023-05-10T10:49:42.516Z,10.83
2023-05-10T10:52:31.113Z,10.45
2023-05-10T10:55:10.069Z,8.74
2023-05-10T10:57:52.879Z,8.55
2023-05-10T11:00:31.806Z,14.63
2023-05-10T11:03:19.790Z,10.07
2023-05-10T11:05:53.482Z,8.93
2023-05-10T11:08:32.652Z,11.02
2023-05-10T11:11:04.314Z,7.60
2023-05-10T11:13:44.645Z,14.63
2023-05-10T11:16:30.635Z,10.07
2023-05-10T11:19:04.255Z,8.74
2023-05-10T11:21:45.265Z,10.45
2023-05-10T11:24:21.689Z,9.12
2023-05-10T11:26:52.829Z,10.26
2023-05-10T11:29:22.756Z,8.93
2023-05-10T11:31:52.578Z,8.55
2023-05-10T11:34:32.191Z,9.69
2023-05-10T11:37:02.533Z,10.64
2023-05-10T11:39:34.496Z,8.74
2023-05-10T11:42:07.910Z,8.17
2023-05-10T11:44:38.048Z,8.17
2023-05-10T11:47:08.124Z,14.82
2023-05-10T11:49:36.250Z,9.31
2023-05-10T11:52:09.168Z,7.79
2023-05-10T11:54:36.403Z,8.17
2023-05-10T11:57:05.246Z,8.36
2023-05-10T11:59:33.095Z,10.64
2023-05-10T12:02:01.700Z,9.50
2023-05-10T12:04:30.564Z,8.93
2023-05-10T12:06:58.397Z,11.02
2023-05-10T12:09:39.650Z,8.74
2023-05-10T12:12:18.776Z,8.36
2023-05-10T12:14:51.975Z,12.92
2023-05-10T12:17:22.093Z,13.30
2023-05-10T12:19:51.785Z,8.93
2023-05-10T12:22:22.602Z,14.82
2023-05-10T12:24:52.765Z,10.83
2023-05-10T12:27:22.580Z,9.88
2023-05-10T12:29:52.359Z,11.21
2023-05-10T12:32:22.109Z,8.17
2023-05-10T12:34:54.280Z,10.83
2023-05-10T12:37:28.571Z,9.88
2023-05-10T12:39:58.385Z,8.74
2023-05-10T12:42:28.287Z,9.69
2023-05-10T12:44:58.524Z,18.05
2023-05-10T12:47:28.287Z,11.97
2023-05-10T12:49:58.369Z,8.93
2023-05-10T12:52:29.587Z,10.64
2023-05-10T12:55:01.403Z,11.02
2023-05-10T12:57:31.626Z,10.64
2023-05-10T13:00:01.450Z,10.26
2023-05-10T13:02:31.252Z,11.59
2023-05-10T13:05:01.143Z,9.88
2023-05-10T13:07:31.058Z,9.12
2023-05-10T13:10:00.870Z,8.93
2023-05-10T13:12:30.743Z,9.88
2023-05-10T13:15:00.627Z,8.36
2023-05-10T13:17:32.052Z,7.98
2023-05-10T13:20:02.655Z,7.22
2023-05-10T13:22:39.783Z,7.60
2023-05-10T13:25:11.798Z,7.98
2023-05-10T13:27:41.747Z,8.93
2023-05-10T13:30:12.309Z,9.31
2023-05-10T13:32:42.148Z,10.07
2023-05-10T13:35:11.957Z,8.17
2023-05-10T13:37:41.723Z,9.31
2023-05-10T13:40:12.121Z,9.12
2023-05-10T13:42:42.541Z,11.21
2023-05-10T13:45:14.228Z,8.55
2023-05-10T13:47:44.391Z,9.88
2023-05-10T13:50:14.249Z,8.74
2023-05-10T13:52:43.964Z,7.98
2023-05-10T13:55:14.349Z,10.83
2023-05-10T13:57:44.189Z,10.83
2023-05-10T14:00:14.850Z,7.98
2023-05-10T14:02:44.689Z,10.64
2023-05-10T14:05:14.742Z,9.31
2023-05-10T14:07:44.716Z,7.60
2023-05-10T14:10:14.469Z,8.55
2023-05-10T14:12:44.292Z,10.45
2023-05-10T14:15:14.072Z,8.36
2023-05-10T14:17:43.792Z,7.22
2023-05-10T14:20:13.616Z,7.41
2023-05-10T14:22:43.501Z,8.74
2023-05-10T14:25:15.606Z,11.40
2023-05-10T14:27:45.752Z,8.74
2023-05-10T14:30:15.923Z,8.74
2023-05-10T14:32:44.007Z,8.93
2023-05-10T14:35:15.430Z,7.79
2023-05-10T14:38:19.855Z,7.98
2023-05-10T14:40:49.069Z,8.36
2023-05-10T14:43:19.308Z,7.41
2023-05-10T14:45:49.532Z,10.07
2023-05-10T14:48:19.347Z,7.41
2023-05-10T14:50:51.087Z,8.36
2023-05-10T14:53:21.034Z,8.93
2023-05-10T14:55:51.086Z,8.93
2023-05-10T14:58:20.967Z,8.74
2023-05-10T15:00:50.943Z,7.98
2023-05-10T15:03:21.452Z,9.69
2023-05-10T15:05:52.559Z,10.07
2023-05-10T15:08:22.682Z,7.41
2023-05-10T15:10:52.953Z,10.07
2023-05-10T15:13:23.098Z,7.79
2023-05-10T15:15:53.110Z,7.60
2023-05-10T15:18:25.710Z,9.69
2023-05-10T15:20:54.697Z,7.98
2023-05-10T15:23:23.018Z,10.64
2023-05-10T15:25:53.313Z,8.55
2023-05-10T15:28:23.385Z,10.83
2023-05-10T15:30:52.192Z,7.79
2023-05-10T15:33:20.560Z,9.12
2023-05-10T15:35:50.390Z,9.88
2023-05-10T15:38:20.863Z,8.36
2023-05-10T15:40:50.856Z,8.93
2023-05-10T15:43:20.797Z,8.93
2023-05-10T15:45:51.397Z,8.36
2023-05-10T15:48:21.351Z,9.69
2023-05-10T15:50:51.181Z,12.92
2023-05-10T15:53:21.001Z,8.74
2023-05-10T15:57:12.866Z,8.55
2023-05-10T15:59:42.930Z,8.17
2023-05-10T16:02:12.983Z,11.40
2023-05-10T16:04:41.315Z,13.49
2023-05-10T16:11:29.189Z,12.92
2023-05-10T16:13:58.179Z,11.02
2023-05-10T16:16:25.539Z,11.97
2023-05-10T16:18:55.468Z,10.64
2023-05-10T16:21:25.553Z,14.06
2023-05-10T16:23:55.580Z,13.87
2023-05-10T16:26:25.624Z,12.35
2023-05-10T16:28:55.401Z,15.58
2023-05-10T16:31:25.393Z,12.35
2023-05-10T16:33:55.148Z,12.16
2023-05-10T16:36:24.884Z,12.35
2023-05-10T16:38:55.054Z,14.25
2023-05-10T16:41:24.993Z,11.40
2023-05-10T16:43:55.287Z,13.68
2023-05-10T16:46:25.218Z,15.20
2023-05-10T16:48:54.732Z,15.01
2023-05-10T16:51:24.619Z,10.45
2023-05-10T16:53:54.552Z,12.54
2023-05-10T16:56:24.492Z,13.11
2023-05-10T16:58:54.451Z,13.30
2023-05-10T17:01:26.505Z,15.20
2023-05-10T17:03:54.892Z,13.68
2023-05-10T17:06:24.817Z,12.73
2023-05-10T17:08:54.593Z,14.25
2023-05-10T17:11:24.392Z,13.49
2023-05-10T17:13:54.252Z,13.87
2023-05-10T17:16:24.147Z,15.77
2023-05-10T17:18:54.145Z,11.78
2023-05-10T17:21:24.197Z,11.21
2023-05-10T17:23:53.924Z,12.54
2023-05-10T17:26:23.715Z,14.06
2023-05-10T17:28:54.808Z,11.21
2023-05-10T17:31:24.069Z,12.35
2023-05-10T17:33:53.886Z,12.16
2023-05-10T17:36:22.790Z,12.35
2023-05-10T17:38:51.712Z,9.88
2023-05-10T17:41:19.312Z,10.45
2023-05-10T17:43:47.568Z,13.68
2023-05-10T17:46:15.970Z,12.73
2023-05-10T17:48:44.562Z,12.73
2023-05-10T17:51:12.956Z,12.16
2023-05-10T17:53:41.811Z,11.02
2023-05-10T17:56:09.824Z,10.64
2023-05-10T17:58:38.399Z,12.16
2023-05-10T18:01:06.705Z,11.59
2023-05-10T18:03:35.956Z,12.92
2023-05-10T18:06:04.422Z,10.83
2023-05-10T18:08:33.077Z,12.92
2023-05-10T18:11:00.650Z,11.78
2023-05-10T18:13:29.005Z,11.59
2023-05-10T18:15:57.303Z,13.49
2023-05-10T18:18:25.753Z,11.21
2023-05-10T18:20:57.576Z,12.35
2023-05-10T18:23:26.360Z,19.57
2023-05-10T18:25:54.138Z,11.40
2023-05-10T18:28:24.580Z,9.88
2023-05-10T18:30:53.756Z,12.35
2023-05-10T18:33:22.196Z,13.49
2023-05-10T18:35:51.001Z,13.30
2023-05-10T18:38:19.630Z,15.01
2023-05-10T18:40:47.675Z,16.53
2023-05-10T18:43:15.903Z,14.06
2023-05-10T18:45:44.280Z,13.49
2023-05-10T18:48:12.868Z,12.54
2023-05-10T18:50:42.677Z,13.87
2023-05-10T18:53:12.606Z,12.73
2023-05-10T18:55:42.543Z,13.49
2023-05-10T18:58:12.382Z,13.30
2023-05-10T19:00:40.873Z,11.59
2023-05-10T19:03:09.512Z,12.35
2023-05-10T19:05:37.704Z,14.25
2023-05-10T19:08:06.715Z,12.35
2023-05-10T19:10:34.677Z,12.16
2023-05-10T19:13:03.154Z,13.87
2023-05-10T19:15:32.860Z,11.78
2023-05-10T19:18:00.019Z,12.73
2023-05-10T19:20:29.011Z,12.92
2023-05-10T19:23:09.145Z,16.53
2023-05-10T19:25:42.232Z,12.92
2023-05-10T19:28:12.048Z,12.73
2023-05-10T19:30:42.067Z,14.63
2023-05-10T19:33:12.746Z,13.49
2023-05-10T19:35:42.743Z,15.58
2023-05-10T19:38:12.552Z,13.11
2023-05-10T19:40:42.333Z,13.30
2023-05-10T19:43:12.512Z,11.40
2023-05-10T19:45:42.750Z,15.96
2023-05-10T19:48:12.704Z,17.29
2023-05-10T19:50:41.040Z,15.20
2023-05-10T19:53:09.667Z,13.30
2023-05-10T19:55:37.984Z,15.39
2023-05-10T19:58:06.480Z,13.30
2023-05-10T20:00:35.512Z,17.86
2023-05-10T20:03:06.382Z,15.20
2023-05-10T20:05:38.276Z,12.73
2023-05-10T20:08:08.002Z,14.06
2023-05-10T20:10:37.959Z,13.30
2023-05-10T20:13:08.249Z,16.72
2023-05-10T20:15:38.265Z,14.44
2023-05-10T20:18:06.642Z,14.06
2023-05-10T20:20:35.293Z,13.87
2023-05-10T20:23:05.164Z,16.72
2023-05-10T20:25:32.965Z,13.30
2023-05-10T20:28:01.254Z,13.87
2023-05-10T20:30:29.841Z,12.73
2023-05-10T20:32:58.697Z,16.15
2023-05-10T20:35:27.535Z,14.63
2023-05-10T20:37:55.971Z,17.10
2023-05-10T20:40:24.633Z,13.49
2023-05-10T20:42:54.074Z,15.01
2023-05-10T20:45:21.395Z,16.34
2023-05-10T20:47:50.127Z,13.49
2023-05-10T20:50:18.332Z,14.82
2023-05-10T20:52:46.765Z,15.58
2023-05-10T20:55:15.273Z,17.29
2023-05-10T20:57:43.686Z,13.30
2023-05-10T21:00:14.198Z,14.06
2023-05-10T21:02:46.058Z,14.63
2023-05-10T21:05:14.762Z,18.81
2023-05-10T21:07:44.832Z,16.15
2023-05-10T21:10:14.709Z,15.39
2023-05-10T21:12:44.595Z,15.96
2023-05-10T21:15:14.460Z,13.49
2023-05-10T21:17:45.567Z,13.87
2023-05-10T21:20:14.963Z,14.06
2023-05-10T21:22:45.005Z,15.96
2023-05-10T21:25:14.859Z,17.86
2023-05-10T21:27:44.693Z,15.20
2023-05-10T21:30:14.909Z,17.10
2023-05-10T21:32:44.746Z,17.48
2023-05-10T21:35:14.759Z,15.96
2023-05-10T21:37:44.612Z,19.57
2023-05-10T21:40:14.709Z,18.62
2023-05-10T21:42:49.218Z,17.67
2023-05-10T21:45:20.457Z,18.62
2023-05-10T21:47:49.523Z,17.10
2023-05-10T21:50:19.732Z,19.57
2023-05-10T21:52:49.927Z,16.72
2023-05-10T21:55:19.725Z,17.10
2023-05-10T21:57:50.458Z,22.42
2023-05-10T22:00:20.023Z,18.05
2023-05-10T22:02:50.061Z,18.43
2023-05-10T22:05:20.048Z,19.38
2023-05-10T22:07:49.973Z,17.86
2023-05-10T22:10:19.798Z,16.72
2023-05-10T22:12:49.807Z,16.53
2023-05-10T22:15:19.594Z,16.53
2023-05-10T22:17:49.461Z,17.86
2023-05-10T22:20:21.071Z,16.91
2023-05-10T22:22:50.383Z,18.81
2023-05-10T22:25:20.317Z,15.96
2023-05-10T22:27:50.202Z,15.58
2023-05-10T22:30:20.261Z,16.72
2023-05-10T22:32:50.316Z,17.48
2023-05-10T22:35:20.547Z,15.20
2023-05-10T22:37:50.366Z,17.10
2023-05-10T22:40:20.263Z,19.19
2023-05-10T22:42:50.068Z,16.15
2023-05-10T22:45:19.924Z,16.34
2023-05-10T22:47:49.894Z,15.77
2023-05-10T22:50:21.100Z,15.96
2023-05-10T22:52:50.241Z,17.10
2023-05-10T22:55:20.025Z,17.48
2023-05-10T22:57:48.483Z,17.48
2023-05-10T23:00:17.836Z,16.34
2023-05-10T23:02:45.402Z,16.34
2023-05-10T23:05:13.978Z,19.19
2023-05-10T23:07:42.141Z,18.24
2023-05-10T23:10:11.489Z,21.28
2023-05-10T23:12:38.940Z,16.72
2023-05-10T23:15:08.582Z,16.34
2023-05-10T23:17:35.793Z,18.62
2023-05-10T23:20:05.333Z,19.19
2023-05-10T23:22:32.642Z,17.67
2023-05-10T23:25:01.051Z,19.00
2023-05-10T23:27:30.676Z,16.15
2023-05-10T23:29:58.731Z,18.43
2023-05-10T23:32:26.788Z,14.82
2023-05-10T23:34:54.833Z,15.01
2023-05-10T23:37:23.144Z,16.72
2023-05-10T23:39:52.305Z,18.43
2023-05-10T23:42:20.334Z,13.87
2023-05-10T23:44:48.393Z,15.77
2023-05-10T23:47:16.857Z,15.96
2023-05-10T23:49:45.261Z,18.81
2023-05-10T23:52:14.127Z,16.91
2023-05-10T23:54:44.611Z,13.87
2023-05-10T23:57:13.607Z,14.63
2023-05-10T23:59:42.090Z,14.82
